Time;durP1;ratioP1;P1;durP2;ratioP2;P2;SDS_P1;SDS_P2;PMS_P1;PMS_P2;Temp;Humidity;BMP_temperature;BMP_pressure;BME280_temperature;BME280_humidity;BME280_pressure;Samples;Min_cycle;Max_cycle;Signal;HPM_P1;HPM_P2
2023/12/03 00:00:07;;;;;;;67.32;23.83;;;;;;;-145.18;100.00;46658.44;5028492;28;20025;-71
2023/12/03 00:02:34;;;;;;;70.18;25.85;;;;;;;-145.18;100.00;46660.41;5027139;28;20032;-70
2023/12/03 00:04:59;;;;;;;69.27;25.57;;;;;;;-145.18;100.00;46658.44;5022218;28;20101;-71
2023/12/03 00:07:26;;;;;;;73.50;24.57;;;;;;;-145.18;100.00;46662.34;5031631;28;20397;-70
2023/12/03 00:09:52;;;;;;;65.50;24.67;;;;;;;-145.18;100.00;46664.31;5029296;28;20025;-71
2023/12/03 00:12:17;;;;;;;77.47;25.27;;;;;;;-145.18;100.00;46658.44;5025989;28;20109;-71
2023/12/03 00:14:43;;;;;;;60.17;22.47;;;;;;;-145.18;100.00;46660.41;5027560;28;20069;-71
2023/12/03 00:17:08;;;;;;;59.87;23.33;;;;;;;-145.18;100.00;46660.41;5033060;28;20033;-71
2023/12/03 00:19:33;;;;;;;58.60;24.13;;;;;;;-145.18;100.00;46658.44;5027550;28;20518;-70
2023/12/03 00:21:59;;;;;;;59.17;23.17;;;;;;;-145.18;100.00;46664.31;5028946;28;20081;-70
2023/12/03 00:24:25;;;;;;;57.63;21.73;;;;;;;-145.18;100.00;46662.34;5029168;28;20124;-71
2023/12/03 00:26:50;;;;;;;59.67;22.50;;;;;;;-145.18;100.00;46660.41;5036944;28;20665;-70
2023/12/03 00:29:16;;;;;;;58.90;22.90;;;;;;;-145.18;100.00;46658.44;5034131;28;20104;-70
2023/12/03 00:31:41;;;;;;;54.83;21.87;;;;;;;-145.18;100.00;46660.41;5023129;28;20029;-70
2023/12/03 00:34:07;;;;;;;58.57;23.33;;;;;;;-145.18;100.00;46660.41;5019392;28;20038;-70
2023/12/03 00:36:32;;;;;;;58.40;22.57;;;;;;;-145.18;100.00;46662.34;5026082;28;20492;-70
2023/12/03 00:38:58;;;;;;;53.47;21.57;;;;;;;-145.18;100.00;46666.25;5029490;28;20044;-70
2023/12/03 00:41:24;;;;;;;54.90;23.27;;;;;;;-145.18;100.00;46658.44;5032589;28;20539;-70
2023/12/03 00:43:50;;;;;;;57.70;22.67;;;;;;;-145.18;100.00;46662.34;5032552;28;20033;-70
2023/12/03 00:46:21;;;;;;;56.83;23.40;;;;;;;-145.18;100.00;46660.41;5026243;28;20121;-70
2023/12/03 00:48:47;;;;;;;52.93;23.33;;;;;;;-145.18;100.00;46660.41;5033536;28;20442;-70
2023/12/03 00:51:13;;;;;;;55.77;23.43;;;;;;;-145.18;100.00;46666.25;5021876;28;20262;-70
2023/12/03 00:53:39;;;;;;;59.27;23.67;;;;;;;-145.18;100.00;46662.34;5023265;28;20080;-70
2023/12/03 00:56:05;;;;;;;52.30;21.93;;;;;;;-145.18;100.00;46658.44;5017026;28;20692;-70
2023/12/03 00:58:31;;;;;;;59.37;25.23;;;;;;;-145.18;100.00;46666.25;5024785;28;20065;-70
2023/12/03 01:00:56;;;;;;;57.30;24.83;;;;;;;-145.18;100.00;46660.41;5031817;28;20369;-70
2023/12/03 01:03:22;;;;;;;59.90;24.30;;;;;;;-145.18;100.00;46662.34;5033138;28;20037;-70
2023/12/03 01:05:47;;;;;;;55.67;25.00;;;;;;;-145.18;100.00;46664.31;5018274;28;20033;-71
2023/12/03 01:08:13;;;;;;;59.33;26.60;;;;;;;-145.18;100.00;46662.34;5015104;28;20396;-70
2023/12/03 01:10:38;;;;;;;62.93;25.30;;;;;;;-145.18;100.00;46670.16;5024716;28;20487;-70
2023/12/03 01:13:04;;;;;;;61.30;26.27;;;;;;;-145.18;100.00;46664.31;5015197;28;20029;-70
2023/12/03 01:15:29;;;;;;;60.07;26.27;;;;;;;-145.18;100.00;46662.34;5016075;28;20033;-70
2023/12/03 01:17:54;;;;;;;59.17;26.90;;;;;;;-145.18;100.00;46660.41;5018613;28;20030;-70
2023/12/03 01:20:20;;;;;;;61.90;28.17;;;;;;;-145.18;100.00;46672.13;5029338;28;20057;-70
2023/12/03 01:22:45;;;;;;;58.93;25.70;;;;;;;-145.18;100.00;46668.22;5033200;28;20030;-70
2023/12/03 01:25:11;;;;;;;56.73;26.97;;;;;;;-145.18;100.00;46664.31;5031188;28;20052;-70
2023/12/03 01:27:36;;;;;;;65.13;28.90;;;;;;;-145.18;100.00;46666.25;5031554;28;20072;-70
2023/12/03 01:30:02;;;;;;;60.93;28.33;;;;;;;-145.18;100.00;46668.22;5030681;28;20048;-70
2023/12/03 01:32:27;;;;;;;59.30;26.43;;;;;;;-145.18;100.00;46664.31;5029773;28;20394;-70
2023/12/03 01:34:52;;;;;;;62.40;28.63;;;;;;;-145.18;100.00;46672.13;5031307;28;20413;-70
2023/12/03 01:37:18;;;;;;;66.07;29.67;;;;;;;-145.18;100.00;46668.22;5031099;28;20038;-70
2023/12/03 01:39:44;;;;;;;67.73;30.77;;;;;;;-145.18;100.00;46664.31;5028359;28;20160;-71
2023/12/03 01:42:09;;;;;;;67.70;30.70;;;;;;;-145.18;100.00;46668.22;5025957;28;20048;-70
2023/12/03 01:44:35;;;;;;;60.00;29.40;;;;;;;-145.18;100.00;46679.94;5030268;28;20030;-70
2023/12/03 01:47:02;;;;;;;61.40;28.83;;;;;;;-145.18;100.00;46668.22;5024246;28;20381;-70
2023/12/03 01:49:28;;;;;;;60.03;28.20;;;;;;;-145.18;100.00;46677.97;5018158;28;20075;-70
2023/12/03 01:51:53;;;;;;;63.60;29.53;;;;;;;-145.18;100.00;46672.13;5020584;28;20713;-70
2023/12/03 01:54:19;;;;;;;55.97;28.30;;;;;;;-145.18;100.00;46676.03;5025536;28;20519;-70
2023/12/03 01:56:45;;;;;;;54.33;26.30;;;;;;;-145.18;100.00;46681.88;5015924;28;20066;-70
2023/12/03 01:59:10;;;;;;;49.83;23.67;;;;;;;-145.18;100.00;46676.03;5026382;28;20037;-70
2023/12/03 02:01:36;;;;;;;51.97;24.40;;;;;;;-145.18;100.00;46676.03;5003192;28;20091;-70
2023/12/03 02:04:01;;;;;;;52.83;24.40;;;;;;;-145.18;100.00;46676.03;5027626;28;20033;-70
2023/12/03 02:06:27;;;;;;;50.33;25.40;;;;;;;-145.18;100.00;46668.22;5032075;28;20056;-70
2023/12/03 02:08:53;;;;;;;46.33;23.10;;;;;;;-145.18;100.00;46672.13;5031669;28;20037;-71
2023/12/03 02:11:19;;;;;;;49.72;24.45;;;;;;;-145.18;100.00;46677.97;5028787;28;20190;-70
2023/12/03 02:13:47;;;;;;;53.53;24.65;;;;;;;-145.18;100.00;46679.94;5030778;28;20395;-70
2023/12/03 02:16:12;;;;;;;52.65;24.17;;;;;;;-145.18;100.00;46691.66;5010489;28;20036;-71
2023/12/03 02:18:38;;;;;;;45.53;23.83;;;;;;;-145.18;100.00;46676.03;5032093;28;20025;-70
2023/12/03 02:21:04;;;;;;;45.00;22.80;;;;;;;-145.18;100.00;46679.94;5029510;28;20041;-70
2023/12/03 02:23:31;;;;;;;45.17;22.87;;;;;;;-145.18;100.00;46672.13;5026620;28;20092;-70
2023/12/03 02:25:56;;;;;;;47.78;23.60;;;;;;;-145.18;100.00;46679.94;5027175;28;20033;-70
2023/12/03 02:28:22;;;;;;;43.07;21.60;;;;;;;-145.18;100.00;46677.97;5030558;28;20500;-70
2023/12/03 02:30:48;;;;;;;43.90;21.07;;;;;;;-145.18;100.00;46679.94;5025001;28;20403;-73
2023/12/03 02:33:13;;;;;;;44.50;21.87;;;;;;;-145.18;100.00;46672.13;5030162;28;20025;-72
2023/12/03 02:35:38;;;;;;;39.73;21.23;;;;;;;-145.18;100.00;46683.84;5030593;28;20072;-72
2023/12/03 02:38:04;;;;;;;41.47;19.87;;;;;;;-145.18;100.00;46674.06;5031452;28;20032;-73
2023/12/03 02:40:32;;;;;;;38.53;20.10;;;;;;;-145.18;100.00;46691.66;5022486;28;20065;-72
2023/12/03 02:42:58;;;;;;;45.63;19.30;;;;;;;-145.18;100.00;46677.97;5026038;28;20030;-72
2023/12/03 02:45:23;;;;;;;43.10;19.70;;;;;;;-145.18;100.00;46693.59;5005847;28;20114;-72
2023/12/03 02:47:48;;;;;;;48.10;20.70;;;;;;;-145.18;100.00;46693.59;5021150;28;20037;-72
2023/12/03 02:50:14;;;;;;;43.30;18.87;;;;;;;-145.18;100.00;46685.78;5024105;28;20037;-72
2023/12/03 02:52:40;;;;;;;45.90;20.33;;;;;;;-145.18;100.00;46693.59;5031878;28;20033;-72
2023/12/03 02:55:06;;;;;;;39.97;19.80;;;;;;;-145.18;100.00;46683.84;5031289;28;20025;-72
2023/12/03 02:57:31;;;;;;;42.67;17.73;;;;;;;-145.18;100.00;46681.88;5031543;28;20037;-73
2023/12/03 02:59:57;;;;;;;40.37;19.70;;;;;;;-145.18;100.00;46683.84;5027904;28;20111;-72
2023/12/03 03:02:22;;;;;;;42.50;19.30;;;;;;;-145.18;100.00;46683.84;5020197;28;20037;-72
2023/12/03 03:04:47;;;;;;;42.70;19.07;;;;;;;-145.18;100.00;46679.94;5033162;28;20025;-72
2023/12/03 03:07:13;;;;;;;44.30;19.30;;;;;;;-145.18;100.00;46697.50;5026746;28;20032;-73
2023/12/03 03:09:38;;;;;;;43.40;19.30;;;;;;;-145.18;100.00;46697.50;5027569;28;20022;-72
2023/12/03 03:12:04;;;;;;;41.73;18.97;;;;;;;-145.18;100.00;46695.56;5029894;28;20399;-72
2023/12/03 03:14:29;;;;;;;40.27;19.83;;;;;;;-145.18;100.00;46687.75;5027752;28;20052;-72
2023/12/03 03:16:54;;;;;;;42.10;19.50;;;;;;;-145.18;100.00;46691.66;5032003;28;20026;-73
2023/12/03 03:19:20;;;;;;;41.20;18.83;;;;;;;-145.18;100.00;46687.75;5034763;28;20104;-73
2023/12/03 03:21:45;;;;;;;40.17;18.90;;;;;;;-145.18;100.00;46685.78;5024634;28;20080;-73
2023/12/03 03:24:11;;;;;;;43.87;19.23;;;;;;;-145.18;100.00;46697.50;5026283;28;20064;-73
2023/12/03 03:26:39;;;;;;;40.63;19.47;;;;;;;-145.18;100.00;46689.69;5034195;28;20029;-73
2023/12/03 03:29:05;;;;;;;43.88;20.02;;;;;;;-145.18;100.00;46677.97;5033452;28;20021;-73
2023/12/03 03:31:31;;;;;;;47.60;20.15;;;;;;;-145.18;100.00;46697.50;5035016;28;20105;-73
2023/12/03 03:33:56;;;;;;;42.23;18.57;;;;;;;-145.18;100.00;46685.78;5032568;28;20093;-73
2023/12/03 03:36:22;;;;;;;48.63;20.07;;;;;;;-145.18;100.00;46693.59;5034956;28;20345;-74
2023/12/03 03:38:47;;;;;;;45.63;19.10;;;;;;;-145.18;100.00;46689.69;5031990;28;20046;-73
2023/12/03 03:41:12;;;;;;;51.50;18.87;;;;;;;-145.18;100.00;46681.88;5033575;28;20028;-74
2023/12/03 03:43:38;;;;;;;46.00;19.13;;;;;;;-145.18;100.00;46691.66;5032504;28;20038;-74
2023/12/03 03:46:03;;;;;;;40.83;19.27;;;;;;;-145.18;100.00;46699.47;5034553;28;20113;-74
2023/12/03 03:48:29;;;;;;;43.90;19.30;;;;;;;-145.18;100.00;46697.50;5030201;28;20029;-74
2023/12/03 03:50:55;;;;;;;42.63;18.60;;;;;;;-145.18;100.00;46691.66;5033695;28;20087;-75
2023/12/03 03:53:20;;;;;;;41.17;18.87;;;;;;;-145.18;100.00;46693.59;5031032;28;20026;-69
2023/12/03 03:55:46;;;;;;;43.20;17.93;;;;;;;-145.18;100.00;46695.56;5033460;28;20032;-69
2023/12/03 03:58:11;;;;;;;42.67;20.13;;;;;;;-145.18;100.00;46699.47;5032130;28;20033;-69
2023/12/03 04:00:37;;;;;;;42.03;19.07;;;;;;;-145.18;100.00;46689.69;5031757;28;20041;-68
2023/12/03 04:03:02;;;;;;;41.70;18.67;;;;;;;-145.18;100.00;46699.47;5032188;28;20029;-68
2023/12/03 04:05:28;;;;;;;47.57;19.50;;;;;;;-145.18;100.00;46691.66;5034246;28;20029;-68
2023/12/03 04:07:53;;;;;;;42.47;19.10;;;;;;;-145.18;100.00;46683.84;5030236;28;20025;-68
2023/12/03 04:10:19;;;;;;;41.53;18.33;;;;;;;-145.18;100.00;46679.94;5034097;28;20414;-68
2023/12/03 04:12:44;;;;;;;44.23;19.17;;;;;;;-145.18;100.00;46685.78;5032616;28;20080;-68
2023/12/03 04:15:10;;;;;;;46.93;20.77;;;;;;;-145.18;100.00;46679.94;5031907;28;20021;-68
2023/12/03 04:17:35;;;;;;;50.47;20.43;;;;;;;-145.18;100.00;46689.69;5033883;28;20033;-68
2023/12/03 04:20:01;;;;;;;43.47;19.43;;;;;;;-145.18;100.00;46681.88;5016520;28;20026;-68
2023/12/03 04:22:26;;;;;;;43.70;19.17;;;;;;;-145.18;100.00;46689.69;5015856;28;20084;-68
2023/12/03 04:24:51;;;;;;;37.33;19.37;;;;;;;-145.18;100.00;46683.84;5015532;28;20032;-68
2023/12/03 04:27:17;;;;;;;39.73;18.47;;;;;;;-145.18;100.00;46693.59;5014259;28;20034;-68
2023/12/03 04:29:42;;;;;;;47.57;19.97;;;;;;;-145.18;100.00;46685.78;5028319;28;20108;-68
2023/12/03 04:32:08;;;;;;;44.53;20.03;;;;;;;-145.18;100.00;46697.50;5022928;28;20061;-68
2023/12/03 04:34:33;;;;;;;53.60;20.50;;;;;;;-145.18;100.00;46695.56;5027740;28;20018;-68
2023/12/03 04:36:59;;;;;;;57.80;22.63;;;;;;;-145.18;100.00;46691.66;5026504;28;20037;-68
2023/12/03 04:39:25;;;;;;;45.57;20.80;;;;;;;-145.18;100.00;46681.88;5023700;28;20033;-67
2023/12/03 04:41:50;;;;;;;54.97;21.03;;;;;;;-145.18;100.00;46681.88;5014255;28;20064;-67
2023/12/03 04:44:15;;;;;;;54.23;21.63;;;;;;;-145.18;100.00;46679.94;5017727;28;20053;-67
2023/12/03 04:46:41;;;;;;;50.97;20.23;;;;;;;-145.18;100.00;46683.84;5021405;28;20064;-66
2023/12/03 04:49:07;;;;;;;50.33;19.70;;;;;;;-145.18;100.00;46687.75;5015852;28;20058;-66
2023/12/03 04:51:33;;;;;;;53.10;21.70;;;;;;;-145.18;100.00;46681.88;5027636;28;20132;-66
2023/12/03 04:53:58;;;;;;;54.00;21.07;;;;;;;-145.18;100.00;46685.78;5017809;28;20044;-66
2023/12/03 04:56:24;;;;;;;54.17;21.60;;;;;;;-145.18;100.00;46681.88;5014592;28;20083;-66
2023/12/03 04:58:49;;;;;;;55.00;21.07;;;;;;;-145.18;100.00;46695.56;5023123;28;20483;-65
2023/12/03 05:01:19;;;;;;;56.43;21.00;;;;;;;-145.18;100.00;46693.59;5033371;28;20033;-65
2023/12/03 05:03:45;;;;;;;55.45;21.95;;;;;;;-145.18;100.00;46681.88;5019195;28;20490;-64
2023/12/03 05:06:12;;;;;;;53.72;21.27;;;;;;;-145.18;100.00;46683.84;5023204;28;20052;-64
2023/12/03 05:08:37;;;;;;;56.60;20.73;;;;;;;-145.18;100.00;46687.75;5028969;28;20026;-64
2023/12/03 05:11:04;;;;;;;52.10;21.07;;;;;;;-145.18;100.00;46681.88;5018539;28;20436;-64
2023/12/03 05:13:30;;;;;;;59.50;22.08;;;;;;;-145.18;100.00;46689.69;5022824;28;20029;-63
2023/12/03 05:15:56;;;;;;;61.28;22.38;;;;;;;-145.18;100.00;46685.78;5018276;28;20046;-63
2023/12/03 05:18:21;;;;;;;53.07;22.00;;;;;;;-145.18;100.00;46687.75;5022399;28;20030;-63
2023/12/03 05:20:46;;;;;;;64.00;22.93;;;;;;;-145.18;100.00;46681.88;5024026;28;20104;-63
2023/12/03 05:23:12;;;;;;;54.67;21.07;;;;;;;-145.18;100.00;46687.75;5053340;28;20111;-63
2023/12/03 05:25:38;;;;;;;61.50;21.27;;;;;;;-145.18;100.00;46681.88;5036653;28;20033;-63
2023/12/03 05:28:03;;;;;;;57.70;23.27;;;;;;;-145.18;100.00;46681.88;5036862;28;20049;-63
2023/12/03 05:30:29;;;;;;;57.40;21.87;;;;;;;-145.18;100.00;46693.59;5038894;28;20390;-62
2023/12/03 05:32:54;;;;;;;50.20;22.20;;;;;;;-145.18;100.00;46687.75;5035407;28;20025;-62
2023/12/03 05:35:20;;;;;;;62.43;22.27;;;;;;;-145.18;100.00;46685.78;5036995;28;20084;-63
2023/12/03 05:37:45;;;;;;;61.37;21.90;;;;;;;-145.18;100.00;46695.56;5037312;28;20533;-63
2023/12/03 05:40:11;;;;;;;57.67;22.40;;;;;;;-145.18;100.00;46683.84;5034752;28;20047;-62
2023/12/03 05:42:36;;;;;;;52.90;22.97;;;;;;;-145.18;100.00;46685.78;5040892;28;20047;-62
2023/12/03 05:45:03;;;;;;;64.50;22.17;;;;;;;-145.18;100.00;46677.97;5030866;28;20037;-63
2023/12/03 05:47:30;;;;;;;57.55;22.80;;;;;;;-145.18;100.00;46687.75;5040195;28;20068;-63
2023/12/03 05:49:58;;;;;;;60.13;21.35;;;;;;;-145.18;100.00;46695.56;5036272;28;20107;-62
2023/12/03 05:52:23;;;;;;;63.20;23.17;;;;;;;-145.18;100.00;46677.97;5037934;28;20452;-63
2023/12/03 05:54:48;;;;;;;60.43;23.00;;;;;;;-145.18;100.00;46681.88;5037115;28;20132;-62
2023/12/03 05:57:14;;;;;;;56.13;23.80;;;;;;;-145.18;100.00;46691.66;5040311;28;20100;-62
2023/12/03 05:59:39;;;;;;;54.87;22.73;;;;;;;-145.18;100.00;46695.56;5021309;28;20025;-63
2023/12/03 06:02:04;;;;;;;59.50;22.03;;;;;;;-145.18;100.00;46681.88;5033817;28;20547;-62
2023/12/03 06:04:30;;;;;;;60.97;22.77;;;;;;;-145.18;100.00;46676.03;5019925;28;20104;-63
2023/12/03 06:06:55;;;;;;;59.33;22.63;;;;;;;-145.18;100.00;46695.56;5031840;28;20026;-62
2023/12/03 06:09:21;;;;;;;57.07;24.37;;;;;;;-145.18;100.00;46689.69;5030654;28;20025;-62
2023/12/03 06:11:46;;;;;;;66.90;23.57;;;;;;;-145.18;100.00;46689.69;5023520;28;20036;-63
2023/12/03 06:14:12;;;;;;;66.97;24.23;;;;;;;-145.18;100.00;46699.47;5025158;28;20510;-62
2023/12/03 06:16:37;;;;;;;57.73;22.80;;;;;;;-145.18;100.00;46683.84;5019548;28;20029;-63
2023/12/03 06:19:03;;;;;;;62.40;23.00;;;;;;;-145.18;100.00;46685.78;5027079;28;20084;-63
2023/12/03 06:21:29;;;;;;;64.97;25.57;;;;;;;-145.18;100.00;46693.59;5028623;28;20137;-63
2023/12/03 06:23:54;;;;;;;64.90;24.83;;;;;;;-145.18;100.00;46687.75;5025243;28;20518;-63
2023/12/03 06:26:20;;;;;;;65.93;23.77;;;;;;;-145.18;100.00;46679.94;5023119;28;20030;-63
2023/12/03 06:28:46;;;;;;;57.67;23.02;;;;;;;-145.18;100.00;46685.78;5033187;28;20034;-63
2023/12/03 06:31:12;;;;;;;68.93;24.37;;;;;;;-145.18;100.00;46681.88;5031485;28;20025;-63
2023/12/03 06:33:38;;;;;;;63.92;24.05;;;;;;;-145.18;100.00;46695.56;5035675;28;20028;-63
2023/12/03 06:36:04;;;;;;;55.43;23.20;;;;;;;-145.18;100.00;46685.78;5027429;28;20072;-62
2023/12/03 06:38:29;;;;;;;62.73;22.57;;;;;;;-145.18;100.00;46683.84;5021525;28;20507;-63
2023/12/03 06:40:54;;;;;;;66.63;24.70;;;;;;;-145.18;100.00;46695.56;5019215;28;20033;-63
2023/12/03 06:43:20;;;;;;;62.77;23.90;;;;;;;-145.18;100.00;46687.75;5053576;28;20605;-63
2023/12/03 06:45:46;;;;;;;57.63;23.43;;;;;;;-145.18;100.00;46676.03;5027213;28;20029;-63
2023/12/03 06:48:12;;;;;;;65.68;23.40;;;;;;;-145.18;100.00;46683.84;5023440;28;20573;-63
2023/12/03 06:50:37;;;;;;;62.77;23.93;;;;;;;-145.18;100.00;46695.56;5030920;28;20069;-63
2023/12/03 06:53:03;;;;;;;58.40;22.87;;;;;;;-145.18;100.00;46683.84;5031231;28;20040;-63
2023/12/03 06:55:28;;;;;;;65.30;25.33;;;;;;;-145.18;100.00;46697.50;5021579;28;20030;-63
2023/12/03 06:57:54;;;;;;;55.63;21.40;;;;;;;-145.18;100.00;46697.50;5031261;28;20099;-63
2023/12/03 07:00:20;;;;;;;56.60;23.07;;;;;;;-145.18;100.00;46697.50;5019882;28;20435;-62
2023/12/03 07:02:45;;;;;;;59.38;24.33;;;;;;;-145.18;100.00;46699.47;5026591;28;20030;-63
2023/12/03 07:05:11;;;;;;;61.93;21.97;;;;;;;-145.18;100.00;46703.38;5021546;28;20304;-63
2023/12/03 07:07:36;;;;;;;63.87;23.90;;;;;;;-145.18;100.00;46691.66;5028904;28;20045;-63
2023/12/03 07:10:03;;;;;;;61.00;23.87;;;;;;;-145.18;100.00;46697.50;5034823;28;20029;-63
2023/12/03 07:12:28;;;;;;;57.95;22.30;;;;;;;-145.18;100.00;46689.69;5039810;28;20026;-63
2023/12/03 07:14:54;;;;;;;59.47;23.93;;;;;;;-145.18;100.00;46685.78;5029818;28;20041;-63
2023/12/03 07:17:19;;;;;;;60.30;21.57;;;;;;;-145.18;100.00;46697.50;5030251;28;20628;-63
2023/12/03 07:19:45;;;;;;;63.30;23.47;;;;;;;-145.18;100.00;46687.75;5031055;28;20042;-63
2023/12/03 07:22:11;;;;;;;64.07;24.15;;;;;;;-145.18;100.00;46699.47;5032403;28;20064;-63
2023/12/03 07:24:41;;;;;;;51.17;22.67;;;;;;;-145.18;100.00;46689.69;5033881;28;20033;-63
2023/12/03 07:27:07;;;;;;;61.78;22.83;;;;;;;-145.18;100.00;46699.47;5036324;28;20102;-63
2023/12/03 07:29:33;;;;;;;60.50;23.00;;;;;;;-145.18;100.00;46693.59;5034361;28;20029;-62
2023/12/03 07:31:59;;;;;;;62.63;22.10;;;;;;;-145.18;100.00;46681.88;5032974;28;20373;-63
2023/12/03 07:34:26;;;;;;;58.47;22.15;;;;;;;-145.18;100.00;46697.50;5033043;28;20029;-62
2023/12/03 07:36:51;;;;;;;60.70;22.63;;;;;;;-145.18;100.00;46695.56;5029940;28;20479;-62
2023/12/03 07:39:17;;;;;;;62.73;23.57;;;;;;;-145.18;100.00;46691.66;5033070;28;20116;-62
2023/12/03 07:41:42;;;;;;;66.07;24.17;;;;;;;-145.18;100.00;46695.56;5039786;28;20115;-62
2023/12/03 07:44:07;;;;;;;60.40;22.70;;;;;;;-145.18;100.00;46697.50;5030428;28;20068;-62
2023/12/03 07:46:33;;;;;;;55.17;21.00;;;;;;;-145.18;100.00;46699.47;5036939;28;20032;-62
2023/12/03 07:48:59;;;;;;;59.37;22.90;;;;;;;-145.18;100.00;46697.50;5035091;28;20450;-62
2023/12/03 07:51:24;;;;;;;66.63;22.17;;;;;;;-145.18;100.00;46695.56;5038591;28;20029;-62
2023/12/03 07:53:49;;;;;;;54.50;21.70;;;;;;;-145.18;100.00;46695.56;5045655;28;20049;-62
2023/12/03 07:56:15;;;;;;;64.93;22.73;;;;;;;-145.18;100.00;46695.56;5032598;28;20112;-62
2023/12/03 07:58:40;;;;;;;63.63;22.60;;;;;;;-145.18;100.00;46697.50;5033775;28;20029;-63
2023/12/03 08:01:06;;;;;;;65.63;22.97;;;;;;;-145.18;100.00;46691.66;5036072;28;20394;-62
2023/12/03 08:03:31;;;;;;;54.40;23.40;;;;;;;-145.18;100.00;46695.56;5036299;28;20083;-63
2023/12/03 08:05:58;;;;;;;57.80;21.70;;;;;;;-145.18;100.00;46693.59;5040022;28;20033;-62
2023/12/03 08:08:24;;;;;;;56.78;22.45;;;;;;;-145.18;100.00;46693.59;5070737;28;20132;-62
2023/12/03 08:10:49;;;;;;;55.50;21.60;;;;;;;-145.18;100.00;46693.59;5026430;28;20109;-62
2023/12/03 08:13:14;;;;;;;61.40;21.87;;;;;;;-145.18;100.00;46691.66;5024941;28;20057;-71
2023/12/03 08:15:40;;;;;;;57.73;22.20;;;;;;;-145.18;100.00;46691.66;5023637;28;20026;-71
2023/12/03 08:18:05;;;;;;;58.57;22.53;;;;;;;-145.18;100.00;46693.59;5025531;28;20045;-71
2023/12/03 08:20:31;;;;;;;51.80;21.00;;;;;;;-145.18;100.00;46693.59;5027447;28;20096;-71
2023/12/03 08:22:56;;;;;;;52.70;20.60;;;;;;;-145.18;100.00;46685.78;5027824;28;20045;-70
2023/12/03 08:25:22;;;;;;;54.63;21.07;;;;;;;-145.18;100.00;46689.69;5032132;28;20724;-70
2023/12/03 08:27:47;;;;;;;53.30;20.03;;;;;;;-145.18;100.00;46685.78;5026671;28;20029;-70
2023/12/03 08:30:13;;;;;;;57.07;22.67;;;;;;;-145.18;100.00;46695.56;5020615;28;20105;-70
2023/12/03 08:32:38;;;;;;;47.77;19.07;;;;;;;-145.18;100.00;46691.66;5024540;28;20713;-70
2023/12/03 08:35:04;;;;;;;56.70;20.50;;;;;;;-145.18;100.00;46693.59;5024107;28;20487;-70
2023/12/03 08:37:29;;;;;;;51.13;19.20;;;;;;;-145.18;100.00;46693.59;5027103;28;20180;-70
2023/12/03 08:39:55;;;;;;;58.90;21.73;;;;;;;-145.18;100.00;46689.69;5027779;28;20057;-71
2023/12/03 08:42:20;;;;;;;57.10;22.33;;;;;;;-145.18;100.00;46695.56;5027631;28;20677;-70
2023/12/03 08:44:46;;;;;;;52.40;19.93;;;;;;;-145.18;100.00;46695.56;5037946;28;20124;-70
2023/12/03 08:47:12;;;;;;;53.30;19.60;;;;;;;-145.18;100.00;46697.50;5030965;28;20037;-70
2023/12/03 08:49:37;;;;;;;53.97;20.03;;;;;;;-145.18;100.00;46697.50;5024292;28;20029;-70
2023/12/03 08:52:03;;;;;;;51.47;20.27;;;;;;;-145.18;100.00;46701.41;5018389;28;20030;-70
2023/12/03 08:54:30;;;;;;;58.63;20.77;;;;;;;-145.18;100.00;46695.56;5032020;28;20033;-70
2023/12/03 08:56:55;;;;;;;48.17;18.65;;;;;;;-145.18;100.00;46691.66;5029676;28;20037;-70
2023/12/03 08:59:23;;;;;;;54.57;18.90;;;;;;;-145.18;100.00;46697.50;5026085;28;20506;-70
2023/12/03 09:01:48;;;;;;;46.70;18.27;;;;;;;-145.18;100.00;46697.50;5030594;28;20039;-70
2023/12/03 09:04:13;;;;;;;44.13;18.17;;;;;;;-145.18;100.00;46697.50;5033240;28;20033;-70
2023/12/03 09:06:40;;;;;;;50.07;18.60;;;;;;;-145.18;100.00;46701.41;5025643;28;20034;-70
2023/12/03 09:09:05;;;;;;;48.47;17.27;;;;;;;-145.18;100.00;46699.47;5030770;28;20034;-70
2023/12/03 09:11:31;;;;;;;52.20;18.93;;;;;;;-145.18;100.00;46701.41;5032124;28;20033;-70
2023/12/03 09:13:56;;;;;;;49.10;18.67;;;;;;;-145.18;100.00;46699.47;5020631;28;20029;-70
2023/12/03 09:16:22;;;;;;;48.97;17.73;;;;;;;-145.18;100.00;46699.47;5031850;28;20035;-70
2023/12/03 09:18:47;;;;;;;49.20;18.03;;;;;;;-145.18;100.00;46699.47;5032889;28;20029;-69
2023/12/03 09:21:13;;;;;;;45.13;18.17;;;;;;;-145.18;100.00;46703.38;5026582;28;20450;-70
2023/12/03 09:23:38;;;;;;;49.47;16.27;;;;;;;-145.18;100.00;46699.47;5028604;28;20048;-70
2023/12/03 09:26:04;;;;;;;48.27;16.77;;;;;;;-145.18;100.00;46707.28;5031864;28;20035;-70
2023/12/03 09:28:32;;;;;;;41.15;16.10;;;;;;;-145.18;100.00;46703.38;5029991;28;20025;-70
2023/12/03 09:30:58;;;;;;;54.78;18.50;;;;;;;-145.18;100.00;46703.38;5033249;28;20094;-70
2023/12/03 09:33:27;;;;;;;43.60;17.33;;;;;;;-145.18;100.00;46711.19;5031226;28;20458;-70
2023/12/03 09:35:53;;;;;;;42.35;17.10;;;;;;;-145.18;100.00;46707.28;5023037;28;20029;-71
2023/12/03 09:38:19;;;;;;;49.65;18.23;;;;;;;-145.18;100.00;46711.19;5035961;28;20044;-71
2023/12/03 09:40:47;;;;;;;39.50;15.48;;;;;;;-145.18;100.00;46709.22;5033330;28;20029;-71
2023/12/03 09:43:16;;;;;;;40.17;17.35;;;;;;;-145.18;100.00;46707.28;5033585;28;20182;-72
2023/12/03 09:45:44;;;;;;;39.42;15.85;;;;;;;-145.18;100.00;46707.28;5036950;28;20502;-72
2023/12/03 09:48:12;;;;;;;41.38;16.25;;;;;;;-145.18;100.00;46709.22;5033624;28;20507;-72
2023/12/03 09:50:38;;;;;;;37.88;16.52;;;;;;;-145.18;100.00;46713.13;5032381;28;20033;-73
2023/12/03 09:53:06;;;;;;;42.28;16.13;;;;;;;-145.18;100.00;46715.09;5035230;28;20088;-73
2023/12/03 09:55:32;;;;;;;39.20;15.18;;;;;;;-145.18;100.00;46709.22;5035195;28;20053;-73
2023/12/03 09:57:59;;;;;;;36.60;15.13;;;;;;;-145.18;100.00;46705.31;5035005;28;20041;-72
2023/12/03 10:00:25;;;;;;;39.35;15.70;;;;;;;-145.18;100.00;46711.19;5030193;28;20106;-73
2023/12/03 10:02:53;;;;;;;40.37;15.60;;;;;;;-145.18;100.00;46709.22;5029553;28;20124;-73
2023/12/03 10:05:18;;;;;;;33.92;14.15;;;;;;;-145.18;100.00;46709.22;5030643;28;20391;-73
2023/12/03 10:07:47;;;;;;;36.70;14.67;;;;;;;-145.18;100.00;46713.13;5032041;28;20034;-73
2023/12/03 10:10:13;;;;;;;40.38;15.93;;;;;;;-145.18;100.00;46711.19;5033671;28;20032;-73
2023/12/03 10:12:42;;;;;;;38.65;14.45;;;;;;;-145.18;100.00;46715.09;5024450;28;20404;-74
2023/12/03 10:15:12;;;;;;;34.42;13.57;;;;;;;-145.18;100.00;46713.13;5019795;28;20021;-74
2023/12/03 10:17:40;;;;;;;37.17;15.88;;;;;;;-145.18;100.00;46711.19;5030226;28;20052;-74
2023/12/03 10:20:29;;;;;;;37.20;13.80;;;;;;;-145.18;100.00;46711.19;5023737;28;20119;-74
2023/12/03 10:22:59;;;;;;;34.88;14.23;;;;;;;-145.18;100.00;46715.09;5028412;28;20037;-75
2023/12/03 10:25:35;;;;;;;37.45;14.75;;;;;;;-145.18;100.00;46709.22;5022650;28;20030;-75
2023/12/03 10:28:01;;;;;;;;;;;;;;;-145.18;100.00;46713.13;5027674;28;20084;-75
2023/12/03 10:30:27;;;;;;;39.53;14.40;;;;;;;-145.18;100.00;46711.19;5025242;28;19920;-75
2023/12/03 10:32:53;;;;;;;30.70;13.73;;;;;;;-145.18;100.00;46705.31;5029616;28;20045;-75
2023/12/03 10:35:22;;;;;;;32.33;13.98;;;;;;;-145.18;100.00;46711.19;5031541;28;20033;-75
2023/12/03 10:37:48;;;;;;;31.98;13.75;;;;;;;-145.18;100.00;46703.38;5025731;28;20048;-75
2023/12/03 10:40:14;;;;;;;32.67;14.53;;;;;;;-145.18;100.00;46703.38;5019211;28;20029;-75
2023/12/03 10:42:40;;;;;;;35.33;13.23;;;;;;;-145.18;100.00;46703.38;5021255;28;20518;-74
2023/12/03 10:45:12;;;;;;;36.60;16.13;;;;;;;-145.18;100.00;46701.41;5021090;28;20029;-75
2023/12/03 10:47:38;;;;;;;32.63;14.20;;;;;;;-145.18;100.00;46697.50;5026186;28;20079;-75